Time;durP1;ratioP1;P1;durP2;ratioP2;P2;SDS_P1;SDS_P2;PMS_P1;PMS_P2;Temp;Humidity;BMP_temperature;BMP_pressure;BME280_temperature;BME280_humidity;BME280_pressure;Samples;Min_cycle;Max_cycle;Signal;HPM_P1;HPM_P2
2022/02/24 00:01:05;;;;;;;12.90;7.50;;;;;;;;;;5037302;28;20235;-66
2022/02/24 00:03:34;;;;;;;12.67;7.57;;;;;;;;;;5037548;28;20211;-66
2022/02/24 00:06:04;;;;;;;12.37;7.43;;;;;;;;;;5039258;28;20250;-66
2022/02/24 00:08:32;;;;;;;11.53;7.10;;;;;;;;;;5043836;28;20286;-66
2022/02/24 00:11:00;;;;;;;10.47;7.00;;;;;;;;;;5043496;28;20272;-67
2022/02/24 00:13:28;;;;;;;10.70;7.10;;;;;;;;;;5044179;28;20290;-66
2022/02/24 00:15:56;;;;;;;9.37;6.53;;;;;;;;;;5043513;28;20667;-66
2022/02/24 00:18:24;;;;;;;9.53;6.93;;;;;;;;;;5043641;28;20590;-66
2022/02/24 00:20:52;;;;;;;14.27;7.20;;;;;;;;;;5043788;28;20250;-66
2022/02/24 00:23:22;;;;;;;12.43;7.20;;;;;;;;;;5043825;28;20294;-66
2022/02/24 00:25:50;;;;;;;12.30;7.93;;;;;;;;;;5043647;28;20779;-66
2022/02/24 00:28:18;;;;;;;12.60;7.43;;;;;;;;;;5044022;28;20236;-67
2022/02/24 00:30:46;;;;;;;13.10;7.20;;;;;;;;;;5043815;28;20238;-66
2022/02/24 00:33:14;;;;;;;14.20;7.37;;;;;;;;;;5043804;28;20249;-66
2022/02/24 00:35:41;;;;;;;16.50;7.17;;;;;;;;;;5043495;28;20289;-67
2022/02/24 00:38:10;;;;;;;12.60;7.07;;;;;;;;;;5029064;28;20228;-65
2022/02/24 00:40:39;;;;;;;15.30;7.63;;;;;;;;;;5023929;28;20295;-66
2022/02/24 00:43:07;;;;;;;11.10;7.17;;;;;;;;;;5023799;28;20744;-66
2022/02/24 00:45:35;;;;;;;14.10;7.63;;;;;;;;;;5023387;28;20260;-66
2022/02/24 00:48:03;;;;;;;13.33;6.83;;;;;;;;;;5023767;28;20287;-66
2022/02/24 00:50:31;;;;;;;11.23;7.30;;;;;;;;;;5023763;28;20246;-66
2022/02/24 00:52:59;;;;;;;13.67;7.00;;;;;;;;;;5023434;28;20763;-66
2022/02/24 00:55:28;;;;;;;11.13;7.10;;;;;;;;;;5033308;28;20302;-66
2022/02/24 00:57:57;;;;;;;11.93;7.37;;;;;;;;;;5043532;28;20208;-66
2022/02/24 01:00:25;;;;;;;14.33;8.13;;;;;;;;;;5043254;28;20207;-67
2022/02/24 01:02:53;;;;;;;13.07;7.60;;;;;;;;;;5043280;28;20243;-66
2022/02/24 01:05:26;;;;;;;13.67;6.73;;;;;;;;;;5043677;28;20234;-66
2022/02/24 01:07:54;;;;;;;14.63;7.83;;;;;;;;;;5043318;28;20230;-67
2022/02/24 01:10:22;;;;;;;11.33;6.87;;;;;;;;;;5043289;28;20207;-68
2022/02/24 01:12:50;;;;;;;16.90;7.40;;;;;;;;;;5043269;28;20647;-68
2022/02/24 01:15:21;;;;;;;11.70;7.37;;;;;;;;;;5043324;28;20737;-68
2022/02/24 01:17:49;;;;;;;13.17;7.87;;;;;;;;;;5041163;28;20615;-68
2022/02/24 01:20:17;;;;;;;13.97;7.27;;;;;;;;;;5039917;28;20661;-68
2022/02/24 01:22:45;;;;;;;14.90;7.90;;;;;;;;;;5040099;28;20733;-68
2022/02/24 01:25:13;;;;;;;12.53;7.67;;;;;;;;;;5040210;28;20282;-68
2022/02/24 01:27:44;;;;;;;15.73;7.73;;;;;;;;;;5040021;28;20687;-68
2022/02/24 01:30:12;;;;;;;12.90;7.33;;;;;;;;;;5039883;28;20242;-68
2022/02/24 01:32:42;;;;;;;10.70;7.13;;;;;;;;;;5040246;28;20242;-68
2022/02/24 01:35:10;;;;;;;12.13;7.73;;;;;;;;;;5040159;28;20243;-68
2022/02/24 01:37:38;;;;;;;10.50;7.47;;;;;;;;;;5030741;28;20648;-68
2022/02/24 01:40:06;;;;;;;12.20;7.03;;;;;;;;;;5020026;28;20267;-68
2022/02/24 01:42:35;;;;;;;12.90;8.00;;;;;;;;;;5019834;28;20747;-68
2022/02/24 01:45:03;;;;;;;13.27;7.40;;;;;;;;;;5019958;28;20247;-68
2022/02/24 01:47:31;;;;;;;9.77;6.60;;;;;;;;;;5020292;28;20244;-68
2022/02/24 01:50:01;;;;;;;19.23;7.23;;;;;;;;;;5020078;28;20268;-68
2022/02/24 01:52:29;;;;;;;12.63;7.50;;;;;;;;;;5020014;28;20244;-68
2022/02/24 01:54:57;;;;;;;12.60;7.17;;;;;;;;;;5025702;28;20230;-68
2022/02/24 01:57:25;;;;;;;17.83;7.40;;;;;;;;;;5032321;28;20735;-68
2022/02/24 01:59:53;;;;;;;11.97;7.10;;;;;;;;;;5039153;28;20238;-68
2022/02/24 02:02:21;;;;;;;12.13;7.40;;;;;;;;;;5039430;28;20306;-68
2022/02/24 02:04:50;;;;;;;13.80;6.97;;;;;;;;;;5039445;28;20291;-68
2022/02/24 02:07:22;;;;;;;11.60;6.70;;;;;;;;;;5039696;28;20207;-67
2022/02/24 02:09:50;;;;;;;13.60;6.53;;;;;;;;;;5039512;28;20286;-68
2022/02/24 02:12:18;;;;;;;14.17;7.07;;;;;;;;;;5038901;28;20262;-68
2022/02/24 02:14:46;;;;;;;11.77;7.07;;;;;;;;;;5038924;28;20758;-67
2022/02/24 02:17:15;;;;;;;18.73;7.70;;;;;;;;;;5039280;28;20278;-68
2022/02/24 02:19:43;;;;;;;13.17;6.93;;;;;;;;;;5038964;28;20259;-68
2022/02/24 02:22:12;;;;;;;13.73;6.23;;;;;;;;;;5039002;28;20239;-68
2022/02/24 02:24:40;;;;;;;11.20;6.83;;;;;;;;;;5039011;28;20699;-68
2022/02/24 02:27:08;;;;;;;13.60;6.73;;;;;;;;;;5038805;28;20776;-68
2022/02/24 02:29:38;;;;;;;10.67;6.80;;;;;;;;;;5037684;28;20203;-68
2022/02/24 02:32:07;;;;;;;14.93;6.90;;;;;;;;;;5038882;28;20235;-68
2022/02/24 02:34:35;;;;;;;11.73;6.37;;;;;;;;;;5039079;28;20290;-68
2022/02/24 02:37:03;;;;;;;12.80;6.87;;;;;;;;;;5034296;28;20300;-68
2022/02/24 02:39:32;;;;;;;11.17;6.33;;;;;;;;;;5018978;28;20315;-67
2022/02/24 02:42:00;;;;;;;8.27;5.17;;;;;;;;;;5018801;28;20240;-67
2022/02/24 02:44:28;;;;;;;9.70;6.77;;;;;;;;;;5018986;28;20240;-67
2022/02/24 02:46:56;;;;;;;13.10;5.97;;;;;;;;;;5018887;28;20236;-67
2022/02/24 02:49:24;;;;;;;12.30;7.00;;;;;;;;;;5018685;28;20636;-68
2022/02/24 02:51:53;;;;;;;8.83;6.23;;;;;;;;;;5018874;28;20236;-68
2022/02/24 02:54:21;;;;;;;10.83;6.17;;;;;;;;;;5019461;28;20240;-68
2022/02/24 02:56:51;;;;;;;12.73;7.13;;;;;;;;;;5038502;28;20306;-68
2022/02/24 02:59:19;;;;;;;9.63;6.57;;;;;;;;;;5038288;28;20665;-68
2022/02/24 03:01:50;;;;;;;14.13;6.53;;;;;;;;;;5038317;28;20286;-68
2022/02/24 03:04:19;;;;;;;10.77;6.67;;;;;;;;;;5038059;28;20216;-68
2022/02/24 03:06:48;;;;;;;12.33;6.53;;;;;;;;;;5038014;28;20595;-68
2022/02/24 03:09:16;;;;;;;12.73;6.33;;;;;;;;;;5037945;28;20208;-68
2022/02/24 03:11:44;;;;;;;10.57;6.47;;;;;;;;;;5037981;28;20244;-68
2022/02/24 03:14:13;;;;;;;10.13;6.10;;;;;;;;;;5038256;28;20235;-68
2022/02/24 03:16:41;;;;;;;9.27;6.17;;;;;;;;;;5037994;28;20247;-68
2022/02/24 03:19:11;;;;;;;9.37;6.10;;;;;;;;;;5037997;28;20213;-68
2022/02/24 03:21:39;;;;;;;8.33;5.60;;;;;;;;;;5038247;28;20290;-68
2022/02/24 03:24:07;;;;;;;8.37;5.80;;;;;;;;;;5038009;28;20235;-68
2022/02/24 03:26:38;;;;;;;8.37;5.43;;;;;;;;;;5038185;28;20223;-68
2022/02/24 03:29:07;;;;;;;10.33;6.47;;;;;;;;;;5038042;28;20203;-68
2022/02/24 03:31:36;;;;;;;14.00;6.63;;;;;;;;;;5037407;28;20713;-68
2022/02/24 03:34:04;;;;;;;12.03;6.33;;;;;;;;;;5037996;28;20211;-68
2022/02/24 03:36:32;;;;;;;9.53;5.70;;;;;;;;;;5037002;28;20261;-68
2022/02/24 03:39:00;;;;;;;14.93;7.67;;;;;;;;;;5017934;28;20730;-68
2022/02/24 03:41:28;;;;;;;11.67;6.80;;;;;;;;;;5017344;28;20314;-68
2022/02/24 03:43:57;;;;;;;10.73;6.20;;;;;;;;;;5017983;28;20204;-67
2022/02/24 03:46:26;;;;;;;11.80;6.30;;;;;;;;;;5017627;28;20232;-68
2022/02/24 03:48:55;;;;;;;8.27;5.90;;;;;;;;;;5018089;28;20212;-68
2022/02/24 03:51:23;;;;;;;8.67;5.73;;;;;;;;;;5017672;28;20242;-66
2022/02/24 03:53:51;;;;;;;10.20;6.80;;;;;;;;;;5017604;28;20239;-67
2022/02/24 03:56:19;;;;;;;12.53;7.97;;;;;;;;;;5034137;28;20652;-67
2022/02/24 03:58:47;;;;;;;13.30;6.23;;;;;;;;;;5037421;28;20235;-66
2022/02/24 04:01:15;;;;;;;10.80;6.33;;;;;;;;;;5037282;28;20307;-66
2022/02/24 04:03:43;;;;;;;8.80;5.97;;;;;;;;;;5037596;28;20207;-68
2022/02/24 04:06:13;;;;;;;11.23;5.63;;;;;;;;;;5037188;28;20333;-68
2022/02/24 04:08:41;;;;;;;10.83;6.60;;;;;;;;;;5037432;28;20218;-68
2022/02/24 04:11:09;;;;;;;11.77;7.20;;;;;;;;;;5037039;28;20769;-68
2022/02/24 04:13:37;;;;;;;12.27;7.10;;;;;;;;;;5037220;28;20710;-68
2022/02/24 04:16:06;;;;;;;10.17;6.60;;;;;;;;;;5036606;28;20227;-68
2022/02/24 04:18:34;;;;;;;11.17;7.53;;;;;;;;;;5037075;28;20592;-68
2022/02/24 04:21:02;;;;;;;10.57;6.63;;;;;;;;;;5037030;28;20658;-68
2022/02/24 04:23:32;;;;;;;10.80;7.27;;;;;;;;;;5036962;28;20286;-68
2022/02/24 04:26:00;;;;;;;11.27;7.77;;;;;;;;;;5037110;28;20757;-68
2022/02/24 04:28:28;;;;;;;11.63;7.47;;;;;;;;;;5036995;28;20281;-68
2022/02/24 04:30:56;;;;;;;11.70;7.50;;;;;;;;;;5037137;28;20262;-67
2022/02/24 04:33:25;;;;;;;14.93;8.10;;;;;;;;;;5037233;28;20213;-67
2022/02/24 04:35:53;;;;;;;13.23;8.23;;;;;;;;;;5036938;28;20227;-68
2022/02/24 04:38:21;;;;;;;11.20;8.47;;;;;;;;;;5021218;28;20236;-67
2022/02/24 04:40:50;;;;;;;10.87;8.00;;;;;;;;;;5017221;28;21037;-68
2022/02/24 04:43:18;;;;;;;9.03;7.30;;;;;;;;;;5017366;28;20555;-68
2022/02/24 04:45:46;;;;;;;10.80;7.87;;;;;;;;;;5016894;28;20263;-68
2022/02/24 04:48:14;;;;;;;10.40;7.37;;;;;;;;;;5017316;28;20212;-68
2022/02/24 04:50:42;;;;;;;10.03;7.67;;;;;;;;;;5017577;28;20220;-68
2022/02/24 04:53:10;;;;;;;9.63;7.23;;;;;;;;;;5018381;28;20676;-68
2022/02/24 04:55:38;;;;;;;8.00;6.87;;;;;;;;;;5032265;28;20235;-68
2022/02/24 04:58:08;;;;;;;12.57;6.60;;;;;;;;;;5040898;28;20259;-68
2022/02/24 05:00:36;;;;;;;10.80;7.47;;;;;;;;;;5040021;28;20719;-68
2022/02/24 05:03:04;;;;;;;12.33;6.40;;;;;;;;;;5040439;28;20294;-68
2022/02/24 05:05:33;;;;;;;10.13;6.90;;;;;;;;;;5040479;28;20629;-68
2022/02/24 05:08:01;;;;;;;11.40;6.77;;;;;;;;;;5040478;28;20211;-68
2022/02/24 05:10:29;;;;;;;11.50;6.70;;;;;;;;;;5032378;28;20260;-68
2022/02/24 05:12:57;;;;;;;11.07;7.30;;;;;;;;;;5010952;28;20216;-68
2022/02/24 05:15:26;;;;;;;12.47;7.17;;;;;;;;;;5011036;28;20220;-68
2022/02/24 05:17:54;;;;;;;9.37;6.67;;;;;;;;;;5011498;28;20735;-68
2022/02/24 05:20:26;;;;;;;11.13;7.00;;;;;;;;;;5009936;28;20232;-68
2022/02/24 05:22:54;;;;;;;11.37;6.90;;;;;;;;;;5009756;28;20204;-68
2022/02/24 05:25:22;;;;;;;9.03;6.73;;;;;;;;;;5012670;28;20221;-68
2022/02/24 05:27:51;;;;;;;9.87;7.07;;;;;;;;;;5012079;28;20730;-68
2022/02/24 05:30:19;;;;;;;9.27;6.07;;;;;;;;;;5011433;28;20205;-68
2022/02/24 05:32:48;;;;;;;12.20;6.80;;;;;;;;;;5008988;28;20611;-68
2022/02/24 05:35:16;;;;;;;10.63;6.83;;;;;;;;;;5009522;28;20220;-68
2022/02/24 05:37:44;;;;;;;8.07;6.53;;;;;;;;;;5010571;28;20204;-68
2022/02/24 05:40:13;;;;;;;13.23;6.80;;;;;;;;;;5012422;28;20664;-68
2022/02/24 05:42:44;;;;;;;11.33;6.43;;;;;;;;;;5009296;28;20280;-68
2022/02/24 05:45:12;;;;;;;10.00;7.10;;;;;;;;;;5011879;28;20196;-68
2022/02/24 05:47:40;;;;;;;9.33;6.30;;;;;;;;;;5013615;28;20204;-68
2022/02/24 05:50:10;;;;;;;9.50;6.77;;;;;;;;;;5012259;28;20204;-67
2022/02/24 05:52:38;;;;;;;12.30;6.50;;;;;;;;;;5008633;28;20197;-68
2022/02/24 05:55:06;;;;;;;7.50;6.50;;;;;;;;;;5016242;28;20471;-67
2022/02/24 05:57:34;;;;;;;6.90;5.67;;;;;;;;;;5009049;28;20208;-68
2022/02/24 06:00:02;;;;;;;8.33;6.13;;;;;;;;;;5008952;28;20228;-68
2022/02/24 06:02:30;;;;;;;7.47;5.47;;;;;;;;;;5011753;28;20311;-68
2022/02/24 06:04:58;;;;;;;10.03;5.40;;;;;;;;;;5012940;28;20240;-68
2022/02/24 06:07:28;;;;;;;9.00;6.37;;;;;;;;;;5008165;28;20473;-66
2022/02/24 06:09:56;;;;;;;8.77;5.90;;;;;;;;;;5008784;28;20209;-70
2022/02/24 06:12:24;;;;;;;8.90;6.13;;;;;;;;;;5009968;28;20554;-70
2022/02/24 06:14:52;;;;;;;10.33;6.37;;;;;;;;;;5009627;28;20443;-70
2022/02/24 06:17:20;;;;;;;11.13;7.17;;;;;;;;;;5010050;28;20200;-70
2022/02/24 06:19:48;;;;;;;13.87;6.83;;;;;;;;;;5009207;28;20471;-70
2022/02/24 06:22:16;;;;;;;9.23;5.97;;;;;;;;;;5012799;28;20487;-67
2022/02/24 06:24:45;;;;;;;8.37;5.07;;;;;;;;;;5010835;28;20291;-68
2022/02/24 06:27:14;;;;;;;9.63;6.00;;;;;;;;;;5010335;28;20502;-69
2022/02/24 06:29:42;;;;;;;8.77;5.87;;;;;;;;;;5008253;28;20228;-69
2022/02/24 06:32:10;;;;;;;11.13;5.80;;;;;;;;;;5011002;28;20633;-68
2022/02/24 06:34:38;;;;;;;8.00;4.40;;;;;;;;;;5012658;28;20231;-68
2022/02/24 06:37:06;;;;;;;8.77;4.90;;;;;;;;;;5013313;28;20303;-68
2022/02/24 06:39:34;;;;;;;11.03;5.93;;;;;;;;;;5005651;28;20652;-68
2022/02/24 06:42:09;;;;;;;8.37;5.63;;;;;;;;;;4999383;28;20224;-68
2022/02/24 06:44:37;;;;;;;10.03;6.20;;;;;;;;;;4999242;28;20236;-68
2022/02/24 06:47:05;;;;;;;9.13;5.47;;;;;;;;;;4999092;28;20735;-68
2022/02/24 06:49:33;;;;;;;6.47;5.07;;;;;;;;;;4999132;28;20295;-68
2022/02/24 06:52:01;;;;;;;7.20;4.90;;;;;;;;;;4999075;28;20644;-68
2022/02/24 06:54:29;;;;;;;21.53;12.87;;;;;;;;;;5000964;28;20456;-68
2022/02/24 06:56:58;;;;;;;9.57;5.17;;;;;;;;;;5018728;28;20262;-68
2022/02/24 06:59:28;;;;;;;10.13;5.93;;;;;;;;;;5014743;28;20738;-70
2022/02/24 07:01:56;;;;;;;11.13;4.70;;;;;;;;;;5015354;28;20583;-70
2022/02/24 07:04:24;;;;;;;8.43;4.90;;;;;;;;;;5015492;28;20209;-70
2022/02/24 07:06:52;;;;;;;12.70;6.20;;;;;;;;;;5014521;28;20262;-70
2022/02/24 07:09:22;;;;;;;10.50;5.13;;;;;;;;;;5015474;28;20628;-70
2022/02/24 07:11:50;;;;;;;7.87;5.27;;;;;;;;;;5030012;28;20262;-70
2022/02/24 07:14:18;;;;;;;9.50;5.57;;;;;;;;;;5033698;28;20278;-70
2022/02/24 07:16:48;;;;;;;12.83;5.37;;;;;;;;;;5035849;28;20215;-70
2022/02/24 07:19:16;;;;;;;12.27;6.13;;;;;;;;;;5035331;28;20679;-70
2022/02/24 07:21:44;;;;;;;9.87;5.13;;;;;;;;;;5029598;28;20259;-69
2022/02/24 07:24:12;;;;;;;13.97;5.73;;;;;;;;;;5036713;28;20226;-69
2022/02/24 07:26:40;;;;;;;13.97;6.07;;;;;;;;;;5034359;28;20330;-69
2022/02/24 07:29:10;;;;;;;11.27;6.70;;;;;;;;;;5035528;28;20226;-69
2022/02/24 07:31:38;;;;;;;11.37;5.60;;;;;;;;;;5035034;28;20282;-67
2022/02/24 07:34:07;;;;;;;10.77;6.07;;;;;;;;;;5037610;28;20242;-66
2022/02/24 07:36:39;;;;;;;11.27;5.90;;;;;;;;;;5031812;28;20278;-67
2022/02/24 07:39:10;;;;;;;14.37;5.97;;;;;;;;;;5036625;28;20236;-67
2022/02/24 07:41:39;;;;;;;10.03;6.30;;;;;;;;;;5034368;28;22116;-67
2022/02/24 07:44:07;;;;;;;7.93;6.03;;;;;;;;;;5033658;28;20287;-67
2022/02/24 07:46:35;;;;;;;8.67;6.07;;;;;;;;;;5032335;28;20227;-66
2022/02/24 07:49:03;;;;;;;11.53;5.97;;;;;;;;;;5034906;28;20207;-67
2022/02/24 07:51:33;;;;;;;12.97;6.07;;;;;;;;;;5036663;28;20231;-66
2022/02/24 07:54:01;;;;;;;8.60;6.07;;;;;;;;;;5030794;28;20236;-66
2022/02/24 07:56:29;;;;;;;9.80;5.87;;;;;;;;;;5036032;28;20266;-66
2022/02/24 07:58:57;;;;;;;17.07;9.00;;;;;;;;;;5015727;28;20299;-66
2022/02/24 08:01:25;;;;;;;22.97;8.57;;;;;;;;;;5014624;28;20244;-66
2022/02/24 08:03:55;;;;;;;20.77;7.97;;;;;;;;;;5024221;28;20760;-66
2022/02/24 08:06:23;;;;;;;16.80;8.90;;;;;;;;;;5036975;28;20314;-66
2022/02/24 08:08:52;;;;;;;16.23;7.40;;;;;;;;;;5036958;28;20257;-65
2022/02/24 08:11:20;;;;;;;15.93;8.20;;;;;;;;;;5036844;28;20652;-66
2022/02/24 08:13:48;;;;;;;14.90;8.20;;;;;;;;;;5036951;28;20287;-66
2022/02/24 08:16:16;;;;;;;20.27;8.20;;;;;;;;;;5035123;28;20584;-66
2022/02/24 08:18:44;;;;;;;21.90;8.20;;;;;;;;;;5021780;28;20677;-64
2022/02/24 08:21:12;;;;;;;14.37;7.83;;;;;;;;;;5033783;28;20242;-65
2022/02/24 08:23:40;;;;;;;20.73;11.20;;;;;;;;;;5034818;28;20249;-65
2022/02/24 08:26:10;;;;;;;24.57;8.33;;;;;;;;;;5032194;28;20310;-65
2022/02/24 08:28:38;;;;;;;16.63;7.63;;;;;;;;;;5038241;28;20207;-65
2022/02/24 08:31:06;;;;;;;12.97;7.57;;;;;;;;;;5040748;28;20271;-66
2022/02/24 08:33:34;;;;;;;16.73;7.63;;;;;;;;;;5041154;28;20212;-65
2022/02/24 08:36:02;;;;;;;26.17;8.87;;;;;;;;;;5037275;28;20677;-67
2022/02/24 08:38:30;;;;;;;15.63;8.27;;;;;;;;;;5021010;28;20211;-66
2022/02/24 08:41:20;;;;;;;11.20;7.63;;;;;;;;;;5027762;28;20214;-65
2022/02/24 08:43:48;;;;;;;14.33;7.37;;;;;;;;;;5040819;28;20270;-66
2022/02/24 08:46:16;;;;;;;13.33;7.30;;;;;;;;;;5040096;28;20227;-66
2022/02/24 08:48:44;;;;;;;14.20;7.80;;;;;;;;;;5040939;28;20207;-66
2022/02/24 08:51:13;;;;;;;11.30;7.37;;;;;;;;;;5040843;28;20298;-65
2022/02/24 08:53:41;;;;;;;13.70;7.47;;;;;;;;;;5039764;28;20202;-65
2022/02/24 08:56:09;;;;;;;20.00;8.40;;;;;;;;;;5039656;28;20653;-66
2022/02/24 08:58:39;;;;;;;17.03;7.73;;;;;;;;;;5037872;28;20390;-66
2022/02/24 09:01:07;;;;;;;16.13;8.10;;;;;;;;;;5027736;28;20263;-66
2022/02/24 09:03:35;;;;;;;11.93;8.03;;;;;;;;;;5040188;28;20231;-65
2022/02/24 09:06:08;;;;;;;13.00;7.60;;;;;;;;;;5039285;28;20282;-65
2022/02/24 09:08:36;;;;;;;16.43;7.37;;;;;;;;;;5034754;28;20200;-65
2022/02/24 09:11:04;;;;;;;12.57;7.80;;;;;;;;;;5032149;28;20240;-65
2022/02/24 09:13:34;;;;;;;10.43;6.83;;;;;;;;;;5020591;28;20215;-65
2022/02/24 09:16:04;;;;;;;12.33;7.30;;;;;;;;;;5023192;28;20215;-65
2022/02/24 09:18:32;;;;;;;14.83;7.07;;;;;;;;;;5031983;28;20218;-65
2022/02/24 09:21:00;;;;;;;14.20;6.70;;;;;;;;;;5040339;28;20295;-65
2022/02/24 09:23:28;;;;;;;16.63;7.87;;;;;;;;;;5039666;28;20299;-66
2022/02/24 09:25:56;;;;;;;19.07;8.50;;;;;;;;;;5040004;28;20762;-66
2022/02/24 09:28:24;;;;;;;19.17;9.77;;;;;;;;;;5037393;28;20207;-66
2022/02/24 09:30:52;;;;;;;16.80;9.10;;;;;;;;;;5036812;28;20235;-65
2022/02/24 09:33:22;;;;;;;14.53;7.93;;;;;;;;;;5035528;28;20207;-65
2022/02/24 09:35:50;;;;;;;16.10;8.47;;;;;;;;;;5038873;28;20339;-66
2022/02/24 09:38:18;;;;;;;13.63;7.67;;;;;;;;;;5038934;28;20282;-65
2022/02/24 09:40:51;;;;;;;14.53;7.13;;;;;;;;;;5039464;28;20649;-65
2022/02/24 09:43:27;;;;;;;15.13;7.13;;;;;;;;;;5039297;28;20274;-66
2022/02/24 09:45:58;;;;;;;11.77;6.37;;;;;;;;;;5039106;28;20231;-66
2022/02/24 09:48:31;;;;;;;12.17;6.83;;;;;;;;;;5039531;28;20212;-66
2022/02/24 09:51:00;;;;;;;14.63;7.13;;;;;;;;;;5039343;28;20200;-66
2022/02/24 09:53:30;;;;;;;10.70;6.70;;;;;;;;;;5039347;28;20203;-66
2022/02/24 09:55:59;;;;;;;21.20;7.37;;;;;;;;;;5033831;28;20227;-66
2022/02/24 09:58:27;;;;;;;14.10;6.37;;;;;;;;;;5034959;28;20215;-66
2022/02/24 10:00:59;;;;;;;16.40;6.60;;;;;;;;;;5021120;28;20246;-66
2022/02/24 10:03:31;;;;;;;11.80;6.60;;;;;;;;;;5019913;28;20311;-66
2022/02/24 10:05:59;;;;;;;13.40;6.67;;;;;;;;;;5019218;28;20256;-66
2022/02/24 10:08:29;;;;;;;13.53;6.97;;;;;;;;;;5019586;28;20266;-66
2022/02/24 10:10:58;;;;;;;11.00;6.73;;;;;;;;;;5019281;28;20329;-66
2022/02/24 10:13:26;;;;;;;14.93;7.27;;;;;;;;;;5019850;28;20577;-66
2022/02/24 10:15:55;;;;;;;15.97;7.43;;;;;;;;;;5021379;28;20287;-66
2022/02/24 10:18:25;;;;;;;19.27;7.03;;;;;;;;;;5038445;28;20540;-66
2022/02/24 10:20:56;;;;;;;14.47;6.77;;;;;;;;;;5035405;28;20239;-66
2022/02/24 10:23:31;;;;;;;14.97;7.60;;;;;;;;;;5035274;28;20215;-65
2022/02/24 10:26:01;;;;;;;14.67;7.00;;;;;;;;;;5036780;28;20311;-64
2022/02/24 10:28:33;;;;;;;16.37;6.23;;;;;;;;;;5035530;28;20231;-65
2022/02/24 10:31:05;;;;;;;20.90;6.90;;;;;;;;;;5035472;28;20227;-64
2022/02/24 10:33:34;;;;;;;16.03;7.17;;;;;;;;;;5032093;28;20279;-63
2022/02/24 10:36:20;;;;;;;16.33;6.63;;;;;;;;;;5035996;28;20220;-65
2022/02/24 10:39:03;;;;;;;12.83;6.63;;;;;;;;;;5033671;28;20231;-66
2022/02/24 10:41:38;;;;;;;19.03;7.97;;;;;;;;;;5036553;28;20210;-64
2022/02/24 10:44:13;;;;;;;16.07;8.63;;;;;;;;;;5032902;28;20220;-65
2022/02/24 10:46:43;;;;;;;18.77;7.70;;;;;;;;;;5036630;28;20227;-65
2022/02/24 10:49:16;;;;;;;10.13;6.53;;;;;;;;;;5035470;28;20200;-65
2022/02/24 10:51:43;;;;;;;14.80;7.20;;;;;;;;;;5036316;28;20287;-65
2022/02/24 10:54:15;;;;;;;13.17;6.93;;;;;;;;;;5036233;28;20205;-64
2022/02/24 10:56:44;;;;;;;16.27;7.40;;;;;;;;;;5033218;28;20255;-63
2022/02/24 10:59:30;;;;;;;19.07;7.80;;;;;;;;;;5037488;28;20261;-63
2022/02/24 11:01:58;;;;;;;14.73;6.70;;;;;;;;;;5025400;28;20235;-65
2022/02/24 11:04:27;;;;;;;15.13;7.20;;;;;;;;;;5018506;28;20239;-66
2022/02/24 11:06:55;;;;;;;15.97;7.73;;;;;;;;;;5020882;28;20286;-65
2022/02/24 11:09:23;;;;;;;17.80;8.23;;;;;;;;;;5017953;28;20663;-65
2022/02/24 11:11:53;;;;;;;17.87;6.43;;;;;;;;;;5018132;28;20278;-65
2022/02/24 11:14:21;;;;;;;11.97;6.10;;;;;;;;;;5030364;28;20208;-65
2022/02/24 11:16:50;;;;;;;9.80;3.33;;;;;;;;;;5037689;28;20231;-65
2022/02/24 11:19:20;;;;;;;9.70;2.93;;;;;;;;;;5037575;28;20207;-67
2022/02/24 11:21:48;;;;;;;7.93;2.60;;;;;;;;;;5037852;28;20318;-67
2022/02/24 11:24:16;;;;;;;6.17;2.43;;;;;;;;;;5037566;28;20650;-66
2022/02/24 11:26:47;;;;;;;5.50;1.90;;;;;;;;;;5037557;28;20638;-67
2022/02/24 11:29:25;;;;;;;6.87;2.30;;;;;;;;;;5036995;28;20257;-67
2022/02/24 11:31:58;;;;;;;9.43;2.17;;;;;;;;;;5035065;28;20238;-67
2022/02/24 11:34:45;;;;;;;6.43;1.90;;;;;;;;;;5037782;28;20195;-68
2022/02/24 11:37:23;;;;;;;9.40;2.43;;;;;;;;;;5037402;28;20223;-68
2022/02/24 11:39:56;;;;;;;7.33;1.97;;;;;;;;;;5037389;28;20238;-68
2022/02/24 11:42:25;;;;;;;6.63;1.90;;;;;;;;;;5037454;28;20207;-68
2022/02/24 11:44:55;;;;;;;5.13;1.83;;;;;;;;;;5027514;28;20224;-68
2022/02/24 11:47:23;;;;;;;5.80;2.20;;;;;;;;;;5034267;28;20231;-67
2022/02/24 11:50:07;;;;;;;4.47;1.80;;;;;;;;;;5036909;28;20235;-68
2022/02/24 11:52:45;;;;;;;7.63;2.03;;;;;;;;;;5024405;28;20231;-68
2022/02/24 11:55:28;;;;;;;9.53;2.33;;;;;;;;;;5030019;28;20255;-68
2022/02/24 11:57:56;;;;;;;7.83;2.30;;;;;;;;;;5035181;28;20231;-68
2022/02/24 12:00:25;;;;;;;6.33;1.97;;;;;;;;;;5031758;28;20196;-68
2022/02/24 12:02:53;;;;;;;4.73;1.77;;;;;;;;;;5036496;28;20266;-67
2022/02/24 12:05:29;;;;;;;4.40;1.83;;;;;;;;;;5033738;28;20291;-68
2022/02/24 12:08:00;;;;;;;7.73;1.97;;;;;;;;;;5035016;28;20203;-68
2022/02/24 12:10:39;;;;;;;7.03;2.03;;;;;;;;;;5036939;28;20223;-67
2022/02/24 12:13:29;;;;;;;6.03;1.60;;;;;;;;;;5033233;28;20249;-68
2022/02/24 12:19:37;;;;;;;3.77;1.70;;;;;;;;;;5031319;28;20178;-68
2022/02/24 12:22:16;;;;;;;3.37;1.70;;;;;;;;;;5037142;28;20685;-69
2022/02/24 12:28:01;;;;;;;6.70;1.50;;;;;;;;;;5032194;28;20287;-68
2022/02/24 12:30:31;;;;;;;10.17;1.60;;;;;;;;;;5031269;28;20203;-71
2022/02/24 12:33:10;;;;;;;8.73;2.47;;;;;;;;;;5036164;28;20612;-68
2022/02/24 12:35:40;;;;;;;4.83;1.73;;;;;;;;;;5033073;28;20559;-70
2022/02/24 12:38:09;;;;;;;6.53;2.17;;;;;;;;;;5036655;28;20278;-68
2022/02/24 12:40:40;;;;;;;7.03;2.03;;;;;;;;;;5033692;28;20206;-69
2022/02/24 12:43:09;;;;;;;4.37;1.50;;;;;;;;;;5037080;28;20225;-68
2022/02/24 12:45:39;;;;;;;7.87;1.63;;;;;;;;;;5036696;28;20285;-70
2022/02/24 12:48:08;;;;;;;5.63;1.70;;;;;;;;;;5036915;28;20275;-69
2022/02/24 12:50:38;;;;;;;4.60;1.57;;;;;;;;;;5030019;28;20303;-66
2022/02/24 12:53:09;;;;;;;3.67;1.50;;;;;;;;;;5032462;28;20214;-65
2022/02/24 12:55:37;;;;;;;5.10;1.80;;;;;;;;;;5026902;28;20259;-66
2022/02/24 12:58:06;;;;;;;9.93;2.00;;;;;;;;;;5017552;28;20267;-66
2022/02/24 13:00:35;;;;;;;6.20;2.07;;;;;;;;;;5035257;28;21814;-65
2022/02/24 13:03:04;;;;;;;5.10;1.70;;;;;;;;;;5031519;28;20258;-66
2022/02/24 13:05:33;;;;;;;9.27;2.90;;;;;;;;;;5035792;28;20312;-65
2022/02/24 13:11:00;;;;;;;4.77;1.87;;;;;;;;;;5029183;28;20319;-65
2022/02/24 13:13:28;;;;;;;2.90;1.80;;;;;;;;;;5033883;28;20242;-64
2022/02/24 13:15:59;;;;;;;4.20;1.67;;;;;;;;;;5038573;28;20755;-64
2022/02/24 13:18:27;;;;;;;5.20;2.17;;;;;;;;;;5039810;28;20206;-64
2022/02/24 13:20:59;;;;;;;4.80;1.70;;;;;;;;;;5038076;28;20235;-65
2022/02/24 13:23:28;;;;;;;5.77;2.43;;;;;;;;;;5038016;28;20278;-64
2022/02/24 13:25:56;;;;;;;4.43;2.30;;;;;;;;;;5034353;28;20302;-64
2022/02/24 13:28:27;;;;;;;5.47;1.83;;;;;;;;;;5039693;28;20208;-65
2022/02/24 13:30:55;;;;;;;3.63;2.00;;;;;;;;;;5039408;28;20278;-65
2022/02/24 13:33:28;;;;;;;4.87;1.83;;;;;;;;;;5039022;28;20234;-65
2022/02/24 13:35:56;;;;;;;6.40;1.83;;;;;;;;;;5037486;28;20277;-65
2022/02/24 13:38:33;;;;;;;3.37;1.67;;;;;;;;;;5037691;28;20634;-65
2022/02/24 13:41:01;;;;;;;5.63;2.03;;;;;;;;;;5037316;28;20282;-65
2022/02/24 13:43:29;;;;;;;4.23;2.37;;;;;;;;;;5038045;28;20243;-65
2022/02/24 13:45:58;;;;;;;2.77;1.83;;;;;;;;;;5035213;28;20247;-65
2022/02/24 13:48:26;;;;;;;6.47;1.70;;;;;;;;;;5035600;28;20200;-65
2022/02/24 13:51:02;;;;;;;6.40;2.00;;;;;;;;;;5035240;28;20278;-64
2022/02/24 13:53:31;;;;;;;6.93;1.83;;;;;;;;;;5036569;28;20234;-64
2022/02/24 13:56:02;;;;;;;6.23;1.77;;;;;;;;;;5036380;28;20238;-64
2022/02/24 13:58:30;;;;;;;13.43;2.97;;;;;;;;;;5036802;28;20286;-65
2022/02/24 14:00:59;;;;;;;9.53;2.90;;;;;;;;;;5037678;28;20215;-65
2022/02/24 14:03:31;;;;;;;14.27;2.73;;;;;;;;;;5039391;28;20294;-65
2022/02/24 14:06:06;;;;;;;6.97;2.77;;;;;;;;;;5039287;28;20227;-65
2022/02/24 14:08:34;;;;;;;5.57;2.13;;;;;;;;;;5039311;28;20211;-65
2022/02/24 14:11:04;;;;;;;6.17;2.30;;;;;;;;;;5039088;28;20306;-66
2022/02/24 14:13:32;;;;;;;11.23;2.23;;;;;;;;;;5039251;28;20621;-66
2022/02/24 14:16:00;;;;;;;10.57;2.50;;;;;;;;;;5038667;28;20562;-69
2022/02/24 14:18:29;;;;;;;7.97;2.50;;;;;;;;;;5039101;28;20211;-69
2022/02/24 14:20:57;;;;;;;7.60;2.10;;;;;;;;;;5039039;28;20231;-70
2022/02/24 14:23:25;;;;;;;6.60;2.20;;;;;;;;;;5038564;28;20239;-68
2022/02/24 14:25:53;;;;;;;6.20;2.00;;;;;;;;;;5038461;28;20314;-66
2022/02/24 14:28:23;;;;;;;5.87;2.13;;;;;;;;;;5025990;28;20290;-67
2022/02/24 14:30:52;;;;;;;3.93;2.40;;;;;;;;;;5038402;28;20246;-77
2022/02/24 14:33:20;;;;;;;7.93;2.10;;;;;;;;;;5031428;28;20232;-75
2022/02/24 14:35:48;;;;;;;5.90;1.97;;;;;;;;;;5021598;28;20292;-74
2022/02/24 14:38:17;;;;;;;5.40;2.17;;;;;;;;;;5031006;28;20234;-73
2022/02/24 14:40:46;;;;;;;5.90;2.30;;;;;;;;;;5034616;28;20237;-75
2022/02/24 14:43:15;;;;;;;4.33;1.57;;;;;;;;;;5036905;28;20443;-74
2022/02/24 14:45:45;;;;;;;8.20;2.03;;;;;;;;;;5034250;28;20314;-74
2022/02/24 14:48:16;;;;;;;6.43;1.90;;;;;;;;;;5035448;28;20203;-73
2022/02/24 14:50:45;;;;;;;8.13;2.20;;;;;;;;;;5033576;28;20237;-74
2022/02/24 14:53:13;;;;;;;5.17;1.90;;;;;;;;;;5037547;28;20617;-74
2022/02/24 14:55:41;;;;;;;4.23;2.30;;;;;;;;;;5037878;28;20251;-74
2022/02/24 14:58:09;;;;;;;7.07;1.97;;;;;;;;;;5038204;28;20759;-74